Search for airport 
image banner adimage banner adimage banner ad
image banner ad

0PN5 - Nichols

Located in Spartansburg, United States

ICAO - 0PN5, IATA -

Data provided by Airmate  

General information

Coordinates: N41°46'45" W79°35'54"
Elevation is 1761 feet MSL.
Magnetic variation is -09° East
View others Airports in Pennsylvania

Operational data

Special qualification required
Current time UTC:
Current local time:
Weather at : KFKL - Venango Rgnl ( 50 km )
METAR: KFKL 152156Z AUTO 31007G14KT 10SM BKN049 20/09 A2995 RMK AO2 SLP141 T02000089
TAF: KFKL 151720Z 1518/1618 33010G20KT P6SM BKN035 FM160000 33008KT P6SM SCT080 FM160300 32005KT P6SM SKC
View NOTAMs / SUP AIP / TFR affecting this airport [VIEW]
Communications frequencies: [VIEW]

Runways:

RWY identifierQFULength (ft)Width (ft)SurfaceLDA (ft)
E2400100GRASS
W2400100GRASS

Airport contact information

Address: Spartansburg United States

Satellite view of 0PN5